Time;durP1;ratioP1;P1;durP2;ratioP2;P2;SDS_P1;SDS_P2;PMS_P1;PMS_P2;Temp;Humidity;BMP_temperature;BMP_pressure;BME280_temperature;BME280_humidity;BME280_pressure;Samples;Min_cycle;Max_cycle;Signal;HPM_P1;HPM_P2
2022/08/08 00:00:03;;;;;;;18.08;13.70;;;21.70;91.80;;;;;;5070817;28;20036;-82
2022/08/08 00:02:55;;;;;;;15.35;13.27;;;21.70;92.00;;;;;;5072226;28;20020;-82
2022/08/08 00:05:55;;;;;;;13.85;11.38;;;21.70;92.20;;;;;;5066994;28;20025;-82
2022/08/08 00:08:39;;;;;;;9.43;8.07;;;21.70;92.00;;;;;;5060824;28;20033;-82
2022/08/08 00:11:31;;;;;;;10.15;8.48;;;21.80;90.80;;;;;;5072399;28;20025;-82
2022/08/08 00:14:24;;;;;;;10.00;9.05;;;21.70;90.40;;;;;;5094403;28;20021;-81
2022/08/08 00:17:23;;;;;;;11.27;9.98;;;21.70;90.70;;;;;;5054090;28;20037;-82
2022/08/08 00:20:27;;;;;;;12.27;9.73;;;21.50;90.90;;;;;;5073701;28;20362;-82
2022/08/08 00:22:57;;;;;;;11.85;8.25;;;21.50;91.00;;;;;;5051207;28;20055;-80
2022/08/08 00:25:37;;;;;;;13.98;11.25;;;21.50;90.60;;;;;;5056045;28;20036;-81
2022/08/08 00:28:06;;;;;;;15.50;13.98;;;21.40;91.20;;;;;;5070680;28;20116;-80
2022/08/08 00:30:37;;;;;;;15.48;13.77;;;21.40;92.40;;;;;;5071911;28;20055;-80
2022/08/08 00:33:31;;;;;;;20.02;15.75;;;21.30;92.70;;;;;;5071893;28;20430;-81
2022/08/08 00:36:12;;;;;;;16.00;14.27;;;21.30;93.00;;;;;;5070306;28;20044;-81
2022/08/08 00:38:38;;;;;;;18.83;16.35;;;21.30;93.70;;;;;;5072563;28;20017;-80
2022/08/08 00:41:34;;;;;;;21.17;17.70;;;21.40;93.90;;;;;;5061343;28;20039;-83
2022/08/08 00:44:21;;;;;;;18.00;16.15;;;21.40;93.60;;;;;;5104669;28;20056;-81
2022/08/08 00:47:05;;;;;;;;;;;21.40;93.50;;;;;;5058115;28;20039;-82
2022/08/08 00:49:59;;;;;;;17.80;15.43;;;21.30;93.10;;;;;;5071461;28;19904;-83
2022/08/08 00:52:41;;;;;;;18.85;16.48;;;21.20;93.40;;;;;;5071534;28;20024;-82
2022/08/08 00:55:40;;;;;;;17.92;16.13;;;21.20;93.60;;;;;;5071511;28;20564;-82
2022/08/08 00:58:36;;;;;;;19.88;16.20;;;21.10;93.80;;;;;;5037428;28;20099;-80
2022/08/08 01:01:13;;;;;;;17.92;15.05;;;21.10;93.80;;;;;;5072819;28;20100;-83
2022/08/08 01:04:16;;;;;;;19.00;16.38;;;21.20;94.10;;;;;;5073118;28;20016;-81
2022/08/08 01:07:07;;;;;;;16.98;15.18;;;21.20;94.10;;;;;;5070098;28;20043;-81
2022/08/08 01:10:02;;;;;;;18.00;16.10;;;21.30;93.90;;;;;;5071240;28;20147;-81
2022/08/08 01:12:45;;;;;;;17.90;16.05;;;21.30;93.70;;;;;;5072165;28;20024;-81
2022/08/08 01:15:30;;;;;;;19.30;16.42;;;21.30;93.70;;;;;;5103029;28;20056;-82
2022/08/08 01:18:24;;;;;;;21.52;19.10;;;21.30;93.80;;;;;;5107990;28;20025;-82
2022/08/08 01:21:18;;;;;;;23.30;19.83;;;21.30;93.90;;;;;;5071487;28;20025;-81
2022/08/08 01:24:20;;;;;;;22.08;17.50;;;21.20;94.00;;;;;;5046060;28;20032;-82
2022/08/08 01:27:23;;;;;;;22.33;17.85;;;21.10;94.10;;;;;;5074729;28;20044;-83
2022/08/08 01:30:07;;;;;;;19.08;16.27;;;21.10;94.30;;;;;;5068614;28;20032;-81
2022/08/08 01:33:03;;;;;;;16.90;15.20;;;21.20;94.10;;;;;;5069599;28;20041;-83
2022/08/08 01:35:47;;;;;;;20.70;15.48;;;21.10;94.00;;;;;;5074979;28;20420;-83
2022/08/08 01:38:46;;;;;;;17.70;15.13;;;21.20;93.80;;;;;;5107442;28;20029;-83
2022/08/08 01:41:30;;;;;;;18.85;16.85;;;21.20;93.70;;;;;;5075381;28;20478;-82
2022/08/08 01:44:04;;;;;;;18.08;15.93;;;21.30;93.40;;;;;;5107716;28;20056;-82
2022/08/08 01:46:40;;;;;;;19.15;16.33;;;21.30;93.50;;;;;;5070040;28;20056;-81
2022/08/08 01:49:27;;;;;;;20.13;18.02;;;21.30;93.70;;;;;;5074413;28;20505;-82
2022/08/08 01:52:22;;;;;;;23.80;21.30;;;21.30;93.60;;;;;;5072531;28;20448;-82
2022/08/08 01:54:55;;;;;;;24.33;21.05;;;21.30;93.70;;;;;;5074474;28;20127;-81
2022/08/08 01:57:46;;;;;;;24.00;20.98;;;21.20;94.00;;;;;;5074482;28;20482;-83
2022/08/08 02:00:15;;;;;;;25.23;21.42;;;21.30;94.10;;;;;;5073298;28;20024;-82
2022/08/08 02:03:03;;;;;;;27.80;23.05;;;21.30;93.90;;;;;;5073402;28;20020;-82
2022/08/08 02:05:48;;;;;;;25.20;22.67;;;21.30;93.70;;;;;;5062345;28;20024;-82
2022/08/08 02:08:23;;;;;;;27.08;23.00;;;21.30;93.80;;;;;;5072892;28;20373;-81
2022/08/08 02:11:08;;;;;;;24.92;22.25;;;21.20;93.80;;;;;;5074652;28;20019;-82
2022/08/08 02:14:05;;;;;;;27.30;24.15;;;21.20;93.80;;;;;;5074949;28;20024;-83
2022/08/08 02:16:44;;;;;;;28.70;24.38;;;21.00;93.80;;;;;;5076891;28;20447;-81
2022/08/08 02:19:16;;;;;;;29.23;24.55;;;20.90;94.10;;;;;;5097684;28;20086;-80
2022/08/08 02:25:01;;;;;;;25.92;22.73;;;20.80;94.60;;;;;;5073959;28;20043;-81
2022/08/08 02:27:57;;;;;;;24.63;21.90;;;20.70;94.50;;;;;;5058516;28;20509;-83
2022/08/08 02:30:44;;;;;;;28.10;24.37;;;20.70;94.70;;;;;;5073811;28;20057;-82
2022/08/08 02:33:31;;;;;;;23.80;21.20;;;20.70;94.50;;;;;;5073763;28;20035;-81
2022/08/08 02:36:06;;;;;;;22.75;20.30;;;20.70;94.40;;;;;;5059918;28;20024;-82
2022/08/08 02:38:47;;;;;;;25.73;21.27;;;20.70;94.50;;;;;;5066152;28;20067;-82
2022/08/08 02:41:22;;;;;;;24.58;21.75;;;20.70;94.50;;;;;;5063478;28;20056;-83
2022/08/08 02:44:13;;;;;;;28.02;22.20;;;20.70;94.60;;;;;;5085023;28;20009;-80
2022/08/08 02:47:16;;;;;;;22.65;20.17;;;20.60;94.60;;;;;;5091350;28;20044;-80
2022/08/08 02:49:54;;;;;;;22.40;19.60;;;20.60;94.60;;;;;;5061661;28;20090;-81
2022/08/08 02:52:47;;;;;;;24.67;20.15;;;20.50;94.80;;;;;;5074168;28;20093;-81
2022/08/08 02:55:39;;;;;;;20.90;17.67;;;20.40;94.80;;;;;;5071887;28;20032;-82
2022/08/08 02:58:42;;;;;;;19.85;17.02;;;20.40;95.10;;;;;;5059846;28;20024;-82
2022/08/08 03:01:37;;;;;;;23.45;18.27;;;20.40;95.10;;;;;;5073377;28;20024;-81
2022/08/08 03:04:21;;;;;;;19.95;15.73;;;20.20;95.30;;;;;;5042323;28;20033;-82
2022/08/08 03:07:31;;;;;;;17.02;14.43;;;20.30;95.30;;;;;;5073575;28;20512;-82
2022/08/08 03:10:16;;;;;;;18.70;14.15;;;20.30;95.30;;;;;;5080193;28;20054;-82
2022/08/08 03:12:45;;;;;;;17.77;13.82;;;20.30;95.30;;;;;;5079442;28;20063;-81
2022/08/08 03:15:54;;;;;;;16.30;12.65;;;20.30;95.10;;;;;;5083111;28;20461;-81
2022/08/08 03:18:34;;;;;;;11.68;10.45;;;20.30;95.40;;;;;;5085430;28;20029;-83
2022/08/08 03:21:00;;;;;;;10.85;9.57;;;20.30;95.10;;;;;;5103644;28;20027;-82
2022/08/08 03:23:26;;;;;;;12.18;10.57;;;20.20;94.90;;;;;;5071657;28;20025;-82
2022/08/08 03:25:55;;;;;;;10.77;8.60;;;20.20;94.90;;;;;;5072667;28;20477;-82
2022/08/08 03:28:50;;;;;;;9.57;7.78;;;20.20;94.90;;;;;;5071375;28;20029;-83
2022/08/08 03:34:06;;;;;;;12.45;9.07;;;20.20;94.90;;;;;;5072751;28;20042;-82
2022/08/08 03:36:39;;;;;;;12.00;8.95;;;20.20;94.60;;;;;;5070605;28;20031;-81
2022/08/08 03:39:05;;;;;;;12.13;8.23;;;20.20;94.60;;;;;;5059261;28;20024;-82
2022/08/08 03:41:33;;;;;;;11.73;8.43;;;20.20;94.40;;;;;;5072206;28;20025;-82
2022/08/08 03:43:59;;;;;;;11.88;6.93;;;20.20;94.40;;;;;;5072195;28;20013;-81
2022/08/08 03:46:25;;;;;;;13.10;7.18;;;20.20;94.20;;;;;;5072354;28;20044;-81
2022/08/08 03:49:00;;;;;;;9.15;7.38;;;20.20;94.20;;;;;;5072158;28;20025;-81
2022/08/08 03:51:27;;;;;;;11.15;7.75;;;20.20;94.10;;;;;;5072154;28;20027;-83
2022/08/08 03:53:53;;;;;;;10.80;6.63;;;20.20;93.80;;;;;;5072165;28;20028;-82
2022/08/08 03:56:21;;;;;;;11.48;7.93;;;20.20;93.90;;;;;;5066658;28;20024;-82
2022/08/08 03:58:52;;;;;;;11.18;7.03;;;20.20;93.70;;;;;;5073568;28;20059;-82
2022/08/08 04:01:19;;;;;;;8.40;6.93;;;20.20;93.70;;;;;;5073808;28;20031;-81
2022/08/08 04:03:47;;;;;;;9.90;6.65;;;20.20;93.60;;;;;;5073748;28;20031;-81
2022/08/08 04:06:14;;;;;;;11.73;5.90;;;20.20;93.50;;;;;;5073000;28;20047;-81
2022/08/08 04:08:40;;;;;;;7.00;5.93;;;20.20;93.20;;;;;;5073206;28;20477;-80
2022/08/08 04:11:07;;;;;;;8.75;6.35;;;20.20;93.10;;;;;;5072943;28;20039;-81
2022/08/08 04:13:34;;;;;;;6.97;6.25;;;20.10;93.00;;;;;;5066975;28;20032;-82
2022/08/08 04:16:00;;;;;;;10.10;6.47;;;20.10;93.10;;;;;;5074032;28;20029;-81
2022/08/08 04:18:26;;;;;;;10.70;7.10;;;20.10;93.10;;;;;;5072764;28;20043;-82
2022/08/08 04:20:52;;;;;;;7.97;6.20;;;20.10;92.90;;;;;;5075108;28;20005;-83
2022/08/08 04:23:18;;;;;;;10.48;6.25;;;20.10;92.90;;;;;;5085751;28;20017;-84
2022/08/08 04:25:44;;;;;;;10.13;6.70;;;20.10;93.10;;;;;;5057146;28;20474;-82
2022/08/08 04:28:10;;;;;;;9.55;6.45;;;20.10;92.80;;;;;;5051918;28;20017;-83
2022/08/08 04:30:35;;;;;;;6.60;6.00;;;20.00;92.80;;;;;;5058337;28;20021;-82
2022/08/08 04:33:02;;;;;;;7.65;6.32;;;20.00;93.00;;;;;;5051906;28;20089;-83
2022/08/08 04:35:27;;;;;;;7.38;6.68;;;20.00;93.10;;;;;;5090992;28;20032;-83
2022/08/08 04:37:54;;;;;;;7.88;7.07;;;20.00;92.80;;;;;;5061035;28;20024;-83
2022/08/08 04:40:21;;;;;;;10.95;7.10;;;20.10;92.50;;;;;;5054408;28;20021;-85
2022/08/08 04:42:47;;;;;;;9.80;7.00;;;20.20;92.40;;;;;;5059234;28;20029;-83
2022/08/08 04:45:14;;;;;;;7.95;6.95;;;20.20;92.20;;;;;;5051411;28;20036;-83
2022/08/08 04:47:40;;;;;;;12.07;6.87;;;20.30;92.00;;;;;;5052468;28;20436;-84
2022/08/08 04:50:06;;;;;;;9.65;8.45;;;20.30;91.80;;;;;;5063411;28;20017;-83
2022/08/08 04:52:32;;;;;;;8.53;7.17;;;20.30;91.70;;;;;;5055529;28;20482;-83
2022/08/08 04:54:58;;;;;;;12.98;7.90;;;20.30;91.60;;;;;;5060697;28;20028;-84
2022/08/08 04:57:24;;;;;;;9.70;6.82;;;20.40;91.40;;;;;;5075601;28;20047;-83
2022/08/08 04:59:50;;;;;;;10.70;6.95;;;20.60;91.00;;;;;;5074643;28;20029;-83
2022/08/08 05:02:16;;;;;;;9.20;7.05;;;20.80;90.60;;;;;;5069729;28;20105;-82
2022/08/08 05:04:42;;;;;;;10.10;7.53;;;21.10;90.20;;;;;;5074852;28;20024;-80
2022/08/08 05:07:08;;;;;;;7.65;6.82;;;21.20;89.50;;;;;;5078786;28;20079;-80
2022/08/08 05:09:34;;;;;;;9.35;8.43;;;21.40;88.60;;;;;;5088109;28;20020;-79
2022/08/08 05:12:02;;;;;;;10.80;9.40;;;21.50;88.20;;;;;;5076820;28;20096;-81
2022/08/08 05:14:28;;;;;;;10.02;9.02;;;21.60;87.20;;;;;;5075304;28;20021;-84
2022/08/08 05:16:54;;;;;;;9.75;8.75;;;21.40;86.80;;;;;;5075645;28;20027;-81
2022/08/08 05:19:21;;;;;;;12.60;9.55;;;21.30;87.10;;;;;;5074337;28;20021;-83
2022/08/08 05:21:48;;;;;;;10.35;9.35;;;21.30;86.70;;;;;;5065184;28;20039;-84
2022/08/08 05:24:14;;;;;;;9.75;8.85;;;21.40;87.10;;;;;;5058968;28;20082;-84
2022/08/08 05:26:41;;;;;;;10.38;9.38;;;21.60;86.40;;;;;;5055770;28;20049;-83
2022/08/08 05:29:07;;;;;;;11.73;9.15;;;21.60;84.90;;;;;;5063195;28;20013;-84
2022/08/08 05:31:34;;;;;;;11.32;9.45;;;21.60;85.00;;;;;;5059639;28;20045;-83
2022/08/08 05:34:15;;;;;;;11.95;9.77;;;21.40;85.40;;;;;;5067492;28;20020;-84
2022/08/08 05:36:43;;;;;;;11.63;10.63;;;21.30;86.30;;;;;;5059909;28;20033;-86
2022/08/08 05:39:09;;;;;;;13.25;10.52;;;21.30;86.10;;;;;;5054983;28;20044;-85
2022/08/08 05:41:36;;;;;;;12.10;10.32;;;21.40;86.10;;;;;;5054684;28;20048;-82
2022/08/08 05:44:10;;;;;;;11.00;9.85;;;21.50;85.80;;;;;;5054483;28;20078;-83
2022/08/08 05:46:37;;;;;;;9.45;8.52;;;21.60;85.30;;;;;;5054357;28;20021;-83
2022/08/08 05:49:03;;;;;;;10.40;7.80;;;21.80;84.40;;;;;;5064800;28;20095;-82
2022/08/08 05:51:29;;;;;;;8.75;7.95;;;21.90;84.10;;;;;;5063627;28;20025;-83
2022/08/08 05:53:56;;;;;;;12.23;6.32;;;22.00;83.70;;;;;;5064048;28;20068;-83
2022/08/08 05:56:22;;;;;;;7.75;6.95;;;22.10;82.90;;;;;;5063610;28;20029;-83
2022/08/08 05:59:01;;;;;;;7.22;6.13;;;22.10;82.20;;;;;;5068403;28;20047;-83
2022/08/08 06:01:28;;;;;;;8.10;6.00;;;22.10;82.00;;;;;;5067209;28;20020;-83
2022/08/08 06:04:01;;;;;;;8.88;6.05;;;22.00;82.50;;;;;;5056225;28;20023;-82
2022/08/08 06:06:30;;;;;;;8.02;6.18;;;22.00;83.00;;;;;;5100629;28;20048;-82
2022/08/08 06:08:59;;;;;;;8.82;6.85;;;22.10;82.90;;;;;;5060770;28;20024;-82
2022/08/08 06:11:26;;;;;;;8.07;5.78;;;22.30;82.40;;;;;;5064017;28;20047;-82
2022/08/08 06:13:52;;;;;;;7.65;6.57;;;22.50;82.40;;;;;;5065795;28;20024;-82
2022/08/08 06:16:19;;;;;;;10.52;6.97;;;22.70;81.20;;;;;;5054847;28;20031;-82
2022/08/08 06:18:46;;;;;;;9.70;5.78;;;22.80;80.90;;;;;;5068872;28;20378;-81
2022/08/08 06:21:15;;;;;;;11.52;8.30;;;23.10;79.90;;;;;;5063663;28;20799;-82
2022/08/08 06:23:42;;;;;;;10.60;7.53;;;23.20;78.80;;;;;;5076860;28;20017;-83
2022/08/08 06:26:10;;;;;;;9.75;7.72;;;23.00;78.60;;;;;;5078164;28;20477;-81
2022/08/08 06:28:54;;;;;;;9.55;7.90;;;22.80;79.40;;;;;;5056833;28;20066;-83
2022/08/08 06:31:21;;;;;;;10.50;7.95;;;22.60;79.90;;;;;;5061398;28;20021;-82
2022/08/08 06:34:16;;;;;;;11.13;7.35;;;22.50;80.50;;;;;;5059262;28;20032;-83
2022/08/08 06:36:44;;;;;;;10.32;8.00;;;22.40;80.90;;;;;;5064164;28;20033;-83
2022/08/08 06:39:12;;;;;;;13.20;8.75;;;22.30;81.50;;;;;;5070908;28;20065;-82
2022/08/08 06:41:45;;;;;;;12.02;9.13;;;22.20;81.60;;;;;;5060094;28;20101;-82
2022/08/08 06:44:15;;;;;;;12.57;9.23;;;22.10;82.00;;;;;;5066750;28;20027;-81
2022/08/08 06:46:43;;;;;;;12.48;8.75;;;22.00;82.50;;;;;;5061436;28;20029;-85
2022/08/08 06:49:09;;;;;;;12.77;10.00;;;22.00;83.00;;;;;;5068612;28;20021;-82
2022/08/08 06:51:35;;;;;;;16.60;9.50;;;22.00;82.90;;;;;;5063019;28;20481;-83
2022/08/08 06:54:02;;;;;;;14.48;10.68;;;22.10;83.20;;;;;;5055173;28;20021;-83
2022/08/08 06:56:29;;;;;;;17.35;8.98;;;22.00;82.70;;;;;;5058340;28;20032;-86
2022/08/08 06:58:55;;;;;;;20.17;10.38;;;21.80;83.50;;;;;;5066038;28;20055;-82
2022/08/08 07:01:24;;;;;;;14.80;8.55;;;21.80;84.00;;;;;;5073453;28;20048;-83
2022/08/08 07:04:25;;;;;;;14.60;8.95;;;21.80;83.80;;;;;;5073549;28;20020;-82
2022/08/08 07:06:56;;;;;;;12.07;8.30;;;22.00;83.50;;;;;;5073648;28;20111;-84
2022/08/08 07:09:35;;;;;;;10.18;8.60;;;22.10;83.30;;;;;;5072552;28;20012;-83
2022/08/08 07:12:06;;;;;;;14.02;9.13;;;22.20;82.60;;;;;;5073055;28;20044;-83
2022/08/08 07:14:52;;;;;;;12.40;8.35;;;22.20;82.60;;;;;;5074907;28;20021;-84
2022/08/08 07:17:23;;;;;;;15.93;9.87;;;22.20;82.80;;;;;;5072309;28;20081;-83
2022/08/08 07:20:07;;;;;;;12.65;9.10;;;22.30;82.10;;;;;;5074264;28;20264;-82
2022/08/08 07:22:41;;;;;;;16.55;11.13;;;22.40;82.20;;;;;;5072307;28;20037;-83
2022/08/08 07:25:10;;;;;;;11.25;10.13;;;22.40;81.70;;;;;;5074521;28;20501;-83
2022/08/08 07:27:45;;;;;;;19.95;10.50;;;22.40;81.60;;;;;;5073784;28;20048;-85
2022/08/08 07:30:12;;;;;;;14.30;11.52;;;22.50;81.30;;;;;;5077197;28;20039;-82
2022/08/08 07:32:39;;;;;;;15.63;10.67;;;22.40;81.30;;;;;;5093289;28;20185;-83
2022/08/08 07:35:06;;;;;;;11.65;9.68;;;22.30;81.80;;;;;;5082636;28;20363;-83
2022/08/08 07:37:34;;;;;;;16.08;11.10;;;22.20;82.20;;;;;;5073771;28;20029;-84
2022/08/08 07:40:00;;;;;;;15.95;11.18;;;22.10;82.40;;;;;;5072792;28;20025;-84
2022/08/08 07:42:28;;;;;;;14.43;10.95;;;22.10;82.70;;;;;;5067885;28;20438;-83
2022/08/08 07:44:54;;;;;;;16.38;11.90;;;22.20;82.70;;;;;;5065544;28;20104;-84
2022/08/08 07:47:20;;;;;;;15.30;11.57;;;22.20;82.90;;;;;;5070007;28;20500;-83
2022/08/08 07:49:46;;;;;;;19.92;10.70;;;22.30;82.40;;;;;;5063727;28;20495;-84
2022/08/08 07:52:13;;;;;;;17.33;11.30;;;22.30;82.10;;;;;;5073246;28;20059;-83
2022/08/08 07:54:45;;;;;;;;;;;22.40;81.90;;;;;;5074009;28;20452;-84
2022/08/08 07:57:15;;;;;;;15.38;11.48;;;22.40;81.60;;;;;;5073346;28;19911;-83
2022/08/08 08:00:06;;;;;;;14.95;10.45;;;22.30;82.00;;;;;;5072645;28;20162;-83
2022/08/08 08:02:38;;;;;;;18.73;12.70;;;22.40;81.90;;;;;;5065562;28;20033;-83
2022/08/08 08:05:25;;;;;;;16.48;12.77;;;22.50;81.70;;;;;;5071608;28;20260;-83
2022/08/08 08:08:21;;;;;;;15.70;12.38;;;22.50;81.30;;;;;;5072121;28;20084;-83
2022/08/08 08:10:55;;;;;;;17.13;15.10;;;22.50;81.50;;;;;;5071089;28;20032;-83
2022/08/08 08:13:24;;;;;;;17.25;14.00;;;22.60;81.20;;;;;;5072574;28;20100;-82
2022/08/08 08:16:06;;;;;;;16.58;14.55;;;22.70;80.70;;;;;;5073972;28;20028;-83
2022/08/08 08:18:46;;;;;;;18.25;14.25;;;23.00;80.70;;;;;;5057474;28;20386;-82
2022/08/08 08:21:13;;;;;;;21.40;17.35;;;23.50;79.40;;;;;;5067773;28;20036;-84
2022/08/08 08:23:38;;;;;;;16.15;14.00;;;24.20;76.70;;;;;;5072017;28;20021;-85
2022/08/08 08:26:04;;;;;;;19.00;13.43;;;24.90;74.90;;;;;;5072204;28;20410;-84
2022/08/08 08:28:30;;;;;;;18.13;13.90;;;25.80;72.80;;;;;;5074433;28;20492;-83
2022/08/08 08:31:03;;;;;;;27.00;13.88;;;26.60;69.70;;;;;;5075311;28;20025;-86
2022/08/08 08:33:30;;;;;;;21.60;13.98;;;27.10;67.60;;;;;;5072420;28;20029;-83
2022/08/08 08:35:57;;;;;;;21.23;15.00;;;28.20;65.30;;;;;;5066192;28;20036;-82
2022/08/08 08:38:22;;;;;;;20.23;13.90;;;29.20;62.00;;;;;;5072268;28;20103;-83
2022/08/08 08:40:49;;;;;;;15.18;13.68;;;29.30;60.30;;;;;;5072099;28;20103;-83
2022/08/08 08:43:18;;;;;;;21.45;14.05;;;29.00;60.30;;;;;;5071941;28;20481;-82
2022/08/08 08:45:46;;;;;;;18.98;14.68;;;29.10;59.80;;;;;;5071718;28;20024;-84
2022/08/08 08:48:15;;;;;;;17.65;13.98;;;28.90;59.50;;;;;;5059049;28;20482;-84
2022/08/08 08:50:43;;;;;;;17.30;14.75;;;28.60;60.00;;;;;;5070712;28;20074;-83
2022/08/08 08:53:13;;;;;;;16.77;15.23;;;28.00;60.90;;;;;;5063423;28;20032;-84
2022/08/08 08:55:41;;;;;;;16.40;14.52;;;27.40;63.00;;;;;;5072737;28;20378;-83
2022/08/08 08:58:07;;;;;;;;;;;26.90;64.00;;;;;;5072522;28;20017;-84
2022/08/08 09:00:36;;;;;;;18.27;16.48;;;26.40;64.70;;;;;;5070975;28;20404;-83
2022/08/08 09:03:08;;;;;;;16.95;14.77;;;25.90;66.90;;;;;;5072787;28;20045;-81
2022/08/08 09:05:39;;;;;;;20.00;16.90;;;25.80;67.20;;;;;;5072449;28;20028;-83
2022/08/08 09:08:06;;;;;;;18.15;15.50;;;26.20;67.20;;;;;;5072129;28;20102;-85
2022/08/08 09:10:36;;;;;;;16.92;15.23;;;26.90;65.80;;;;;;5078446;28;20028;-84
2022/08/08 09:13:03;;;;;;;16.00;14.43;;;28.80;62.60;;;;;;5079851;28;20036;-84
2022/08/08 09:15:30;;;;;;;21.40;14.98;;;31.30;57.50;;;;;;5081130;28;20123;-83
2022/08/08 09:17:57;;;;;;;18.17;13.93;;;32.20;53.10;;;;;;5084775;28;20128;-83
2022/08/08 09:20:26;;;;;;;14.48;13.05;;;31.90;53.00;;;;;;5075502;28;20123;-85
2022/08/08 09:22:55;;;;;;;13.88;12.63;;;32.20;52.90;;;;;;5071535;28;20016;-86
2022/08/08 09:25:21;;;;;;;17.00;15.23;;;32.60;51.50;;;;;;5070365;28;20052;-83
2022/08/08 09:27:48;;;;;;;15.17;13.63;;;32.30;50.60;;;;;;5071817;28;20040;-83
2022/08/08 09:30:15;;;;;;;14.17;12.50;;;31.50;52.00;;;;;;5070727;28;20254;-84
2022/08/08 09:32:43;;;;;;;17.00;14.07;;;31.20;53.50;;;;;;5071106;28;20269;-82
2022/08/08 09:35:19;;;;;;;17.65;13.35;;;30.90;53.30;;;;;;5074601;28;20043;-82
2022/08/08 09:37:50;;;;;;;14.60;11.27;;;30.40;54.40;;;;;;5075631;28;20025;-84
2022/08/08 09:40:18;;;;;;;14.27;12.63;;;30.60;54.50;;;;;;5075716;28;20031;-82
2022/08/08 09:43:02;;;;;;;14.00;12.63;;;30.80;53.50;;;;;;5069883;28;20033;-83
2022/08/08 09:45:37;;;;;;;17.05;13.93;;;30.10;54.50;;;;;;5074056;28;20021;-84
2022/08/08 09:48:04;;;;;;;17.63;13.10;;;29.60;55.50;;;;;;5074852;28;20094;-83
2022/08/08 09:50:30;;;;;;;;;;;29.50;56.20;;;;;;5076037;28;20109;-83
2022/08/08 09:52:56;;;;;;;13.13;11.87;;;29.80;56.10;;;;;;5109798;28;19935;-85
2022/08/08 09:55:29;;;;;;;17.85;15.43;;;29.70;55.50;;;;;;5078481;28;20027;-82
2022/08/08 09:58:16;;;;;;;13.75;12.27;;;29.30;55.60;;;;;;5087571;28;20063;-82
2022/08/08 10:00:44;;;;;;;16.98;10.95;;;;;;;;;;5091986;28;20392;-83
2022/08/08 10:03:14;;;;;;;12.48;9.73;;;27.90;58.70;;;;;;5078650;28;20021;-84
2022/08/08 10:05:40;;;;;;;14.15;11.85;;;27.50;60.30;;;;;;5074584;28;20025;-84
2022/08/08 10:08:06;;;;;;;11.57;10.50;;;27.20;61.20;;;;;;5060701;28;20028;-84
2022/08/08 10:10:43;;;;;;;16.23;11.60;;;27.20;61.50;;;;;;5107356;28;20407;-84
2022/08/08 10:13:16;;;;;;;12.07;9.60;;;27.30;61.50;;;;;;5074436;28;20013;-84
2022/08/08 10:15:46;;;;;;;10.13;8.77;;;27.20;61.40;;;;;;5090367;28;20490;-84
2022/08/08 10:18:12;;;;;;;11.00;9.80;;;27.20;61.80;;;;;;5074574;28;20017;-84
2022/08/08 10:20:44;;;;;;;13.37;9.63;;;27.20;61.70;;;;;;5074298;28;20097;-82
2022/08/08 10:23:14;;;;;;;11.15;10.05;;;27.40;61.60;;;;;;5070450;28;20017;-84
2022/08/08 10:25:43;;;;;;;15.02;12.02;;;27.00;61.50;;;;;;5074884;28;20054;-84
2022/08/08 10:28:19;;;;;;;12.10;11.07;;;26.70;62.00;;;;;;5074099;28;20025;-83
2022/08/08 10:30:57;;;;;;;14.93;10.80;;;26.30;63.20;;;;;;5074815;28;20016;-84
2022/08/08 10:33:33;;;;;;;13.73;10.40;;;26.00;64.00;;;;;;5080130;28;20028;-83
2022/08/08 10:36:03;;;;;;;13.93;11.52;;;25.70;65.10;;;;;;5084830;28;20021;-83
2022/08/08 10:38:31;;;;;;;12.18;10.05;;;25.40;66.00;;;;;;5081771;28;20051;-83
2022/08/08 10:41:02;;;;;;;13.30;9.80;;;25.30;67.00;;;;;;5067920;28;20019;-83
2022/08/08 10:43:38;;;;;;;12.30;9.20;;;25.40;66.80;;;;;;5068688;28;20037;-83
2022/08/08 10:46:24;;;;;;;9.43;8.52;;;25.50;66.60;;;;;;5073701;28;20080;-83
2022/08/08 10:48:59;;;;;;;11.13;9.48;;;25.60;66.40;;;;;;5073313;28;20024;-85
2022/08/08 10:51:28;;;;;;;10.15;8.77;;;25.60;66.30;;;;;;5073445;28;20389;-84
2022/08/08 10:53:54;;;;;;;12.05;9.60;;;25.50;66.50;;;;;;5073439;28;20107;-85
2022/08/08 10:56:21;;;;;;;11.02;9.93;;;25.70;66.30;;;;;;5072117;28;20052;-84
2022/08/08 10:58:56;;;;;;;10.93;9.65;;;25.80;65.90;;;;;;5068601;28;20104;-84
2022/08/08 11:01:28;;;;;;;13.75;9.27;;;25.80;66.10;;;;;;5072141;28;20062;-84
2022/08/08 11:03:58;;;;;;;9.68;8.20;;;25.70;66.50;;;;;;5074363;28;20020;-83
2022/08/08 11:06:31;;;;;;;12.20;9.82;;;25.60;66.60;;;;;;5073213;28;20070;-84
2022/08/08 11:09:08;;;;;;;10.43;9.35;;;25.20;68.20;;;;;;5073207;28;20017;-82
2022/08/08 11:11:38;;;;;;;;;;;24.90;68.80;;;;;;5073784;28;20078;-84
2022/08/08 11:14:05;;;;;;;15.40;9.55;;;24.60;68.70;;;;;;5071064;28;19908;-84
2022/08/08 11:16:32;;;;;;;;;;;24.10;70.50;;;;;;5069706;28;20516;-84
2022/08/08 11:18:59;;;;;;;21.30;14.85;;;23.80;71.40;;;;;;5073522;28;19904;-85
2022/08/08 11:21:27;;;;;;;10.65;8.93;;;23.60;73.00;;;;;;5072758;28;20028;-84
2022/08/08 11:23:57;;;;;;;11.40;9.80;;;23.90;72.50;;;;;;5072897;28;20016;-83
2022/08/08 11:26:27;;;;;;;11.20;10.20;;;24.30;71.30;;;;;;5072821;28;20056;-81
2022/08/08 11:29:00;;;;;;;12.48;8.77;;;24.30;70.90;;;;;;5072783;28;20024;-83
2022/08/08 11:31:28;;;;;;;13.50;9.07;;;24.30;70.90;;;;;;5104331;28;20029;-83
2022/08/08 11:33:56;;;;;;;11.80;8.70;;;24.40;70.80;;;;;;5072739;28;20024;-83
2022/08/08 11:36:22;;;;;;;12.98;9.07;;;24.30;70.80;;;;;;5071216;28;20031;-83
2022/08/08 11:38:50;;;;;;;10.63;8.70;;;24.30;70.80;;;;;;5071411;28;20028;-82
2022/08/08 11:41:17;;;;;;;10.73;9.80;;;24.30;70.90;;;;;;5072886;28;20528;-84
2022/08/08 11:43:44;;;;;;;;;;;24.40;70.30;;;;;;5072857;28;20103;-83
2022/08/08 11:46:10;;;;;;;8.98;8.07;;;24.30;70.40;;;;;;5095423;28;19917;-82
2022/08/08 11:48:37;;;;;;;11.27;7.97;;;24.30;70.30;;;;;;5067770;28;20439;-83
2022/08/08 11:51:04;;;;;;;8.68;7.75;;;24.30;70.30;;;;;;5072609;28;20114;-82
2022/08/08 11:53:31;;;;;;;12.02;8.45;;;24.50;70.40;;;;;;5072287;28;20493;-84
2022/08/08 11:55:57;;;;;;;10.30;8.57;;;24.60;69.80;;;;;;5071951;28;20016;-83
2022/08/08 11:58:33;;;;;;;8.48;7.13;;;24.50;69.90;;;;;;5071895;28;20059;-82
2022/08/08 12:01:03;;;;;;;9.75;8.77;;;24.60;70.00;;;;;;5072247;28;20020;-82
2022/08/08 12:03:35;;;;;;;7.90;6.85;;;24.70;69.30;;;;;;5069167;28;20494;-83
2022/08/08 12:06:14;;;;;;;9.35;7.40;;;24.70;69.10;;;;;;5066323;28;20021;-84
2022/08/08 12:08:40;;;;;;;11.10;7.70;;;24.60;69.30;;;;;;5060996;28;20024;-83
2022/08/08 12:11:14;;;;;;;9.45;8.15;;;24.70;69.20;;;;;;5072506;28;20351;-82
2022/08/08 12:13:41;;;;;;;13.00;7.35;;;24.80;68.70;;;;;;5072721;28;20378;-84
2022/08/08 12:16:16;;;;;;;7.90;7.10;;;24.70;68.30;;;;;;5072417;28;20025;-84
2022/08/08 12:18:53;;;;;;;6.63;6.03;;;24.60;69.10;;;;;;5059416;28;20375;-84
2022/08/08 12:21:31;;;;;;;7.03;5.75;;;24.60;69.10;;;;;;5069846;28;20052;-86
2022/08/08 12:24:06;;;;;;;10.70;6.40;;;24.50;69.20;;;;;;5072702;28;20103;-83
2022/08/08 12:26:46;;;;;;;11.57;5.22;;;24.30;70.40;;;;;;5076299;28;20146;-84
2022/08/08 12:29:23;;;;;;;13.68;5.53;;;24.40;70.60;;;;;;5081474;28;20005;-82
2022/08/08 12:32:09;;;;;;;8.35;5.82;;;24.40;70.30;;;;;;5077510;28;20025;-85
2022/08/08 12:34:40;;;;;;;7.63;5.22;;;24.30;70.50;;;;;;5073519;28;20080;-84
2022/08/08 12:37:09;;;;;;;6.97;4.85;;;24.30;70.60;;;;;;5075330;28;20020;-82
2022/08/08 12:39:36;;;;;;;6.57;4.93;;;24.30;70.80;;;;;;5075227;28;20029;-84
2022/08/08 12:42:02;;;;;;;10.73;5.60;;;24.20;70.80;;;;;;5072679;28;20019;-84
2022/08/08 12:44:30;;;;;;;10.05;6.45;;;23.90;70.80;;;;;;5072540;28;20779;-83
2022/08/08 12:46:57;;;;;;;7.18;5.57;;;23.60;72.00;;;;;;5071956;28;20162;-84
2022/08/08 12:49:31;;;;;;;8.15;5.55;;;23.50;72.80;;;;;;5072354;28;20090;-84
2022/08/08 12:51:58;;;;;;;7.78;5.13;;;23.40;72.90;;;;;;5072039;28;20029;-83
2022/08/08 12:54:26;;;;;;;7.03;5.43;;;23.50;72.90;;;;;;5068664;28;20031;-83
2022/08/08 12:56:53;;;;;;;6.35;4.72;;;23.60;72.70;;;;;;5072343;28;20113;-83
2022/08/08 12:59:27;;;;;;;5.22;4.68;;;23.80;71.80;;;;;;5072000;28;20036;-83
2022/08/08 13:01:57;;;;;;;7.80;5.45;;;24.00;71.30;;;;;;5072696;28;20043;-83
2022/08/08 13:04:25;;;;;;;4.95;4.28;;;24.10;71.20;;;;;;5072041;28;20482;-85
2022/08/08 13:07:12;;;;;;;16.90;5.25;;;24.10;71.40;;;;;;5072573;28;20132;-84
2022/08/08 13:09:41;;;;;;;13.43;4.88;;;24.00;71.90;;;;;;5074343;28;20023;-84
2022/08/08 13:12:16;;;;;;;6.38;4.03;;;24.10;72.00;;;;;;5066737;28;20028;-84
2022/08/08 13:14:45;;;;;;;3.80;3.05;;;24.20;72.00;;;;;;5072256;28;20028;-84